Mahi Mahi — FAC4822 — position and weather

sailwx.info

Track history (hours):
 
Tides and Currents Weather Stations Pressure Air Temp Water Temp Dewpoint Dewpoint Depression Visibility Wind Speed Wind Dir Waves Ship Positions

Mahi Mahi

Last reported at 2017-Sep-20 13:04 UTC. Time now 2017-Sep-23 02:28 UTC.
Position N 47°06' W 002°07'.

Length 12 m.

Type: Sailing vessel. MMSI: 227290960.

Date/timePositionNaut miles runAvg speedWind from/ knotsBaromVisibWave heightAir tempDewpointWater temp
2017-Sep-20 13:04N 47°06' W 002°07'0 2.3
2017-Sep-20 12:58N 47°06' W 002°07'2 5.4
2017-Sep-20 12:30N 47°06' W 002°10'20 4.6
2017-Sep-20 08:03N 47°19' W 002°34'1 0.1
2017-Sep-19 12:55N 47°20' W 002°33'3 5.1
2017-Sep-19 12:19N 47°20' W 002°38'2 5.3
2017-Sep-19 11:59N 47°21' W 002°41'3 5.1
2017-Sep-19 11:28N 47°21' W 002°44'3 5.4
2017-Sep-19 10:59N 47°21' W 002°48'2 5.1
2017-Sep-19 10:30N 47°21' W 002°52'3 5.5
2017-Sep-19 10:00N 47°22' W 002°56'3 5.7
2017-Sep-19 09:30N 47°22' W 003°00'3 5.4
2017-Sep-19 09:00N 47°22' W 003°04'3 5.1
2017-Sep-19 08:30N 47°22' W 003°08'2 4.3
2017-Sep-19 08:00N 47°23' W 003°11'1 2.8
2017-Sep-19 07:29N 47°22' W 003°13'0 0.0
2017-Sep-19 06:59N 47°22' W 003°13'0 0.0
2017-Sep-18 16:59N 47°22' W 003°13'0 0.0
2017-Sep-18 14:59N 47°22' W 003°13'0 0.0
2017-Sep-18 14:26N 47°22' W 003°13'0 1.0
2017-Sep-18 14:00N 47°23' W 003°13'2 5.1
2017-Sep-18 13:30N 47°25' W 003°14'3 5.5
2017-Sep-18 13:00N 47°28' W 003°15'3 5.6
2017-Sep-18 12:30N 47°31' W 003°17'3 5.2
2017-Sep-18 12:00N 47°33' W 003°18'2 4.5
2017-Sep-18 11:30N 47°35' W 003°19'3 5.2
2017-Sep-18 11:00N 47°38' W 003°20'3 5.4
2017-Sep-18 10:30N 47°40' W 003°22'2 5.0
2017-Sep-18 10:00N 47°43' W 003°22'1 2.4
2017-Sep-18 09:30N 47°44' W 003°21'0 0.0
2017-Sep-18 06:41N 47°44' W 003°21'  
Track history (hours):
 
Tides and Currents Weather Stations Pressure Air Temp Water Temp Dewpoint Dewpoint Depression Visibility Wind Speed Wind Dir Waves Ship Positions

Mahi Mahi

Last reported at 2017-Sep-20 13:04 UTC. Time now 2017-Sep-23 02:28 UTC.
Position N 47°06' W 002°07'.

Length 12 m.

Type: Sailing vessel. MMSI: 227290960.

Date/timePositionNaut miles runAvg speedWind from/ knotsBaromVisibWave heightAir tempDewpointWater temp
2017-Sep-20 13:04N 47°06' W 002°07'0 2.3
2017-Sep-20 12:58N 47°06' W 002°07'2 5.4
2017-Sep-20 12:30N 47°06' W 002°10'20 4.6
2017-Sep-20 08:03N 47°19' W 002°34'1 0.1
2017-Sep-19 12:55N 47°20' W 002°33'3 5.1
2017-Sep-19 12:19N 47°20' W 002°38'2 5.3
2017-Sep-19 11:59N 47°21' W 002°41'3 5.1
2017-Sep-19 11:28N 47°21' W 002°44'3 5.4
2017-Sep-19 10:59N 47°21' W 002°48'2 5.1
2017-Sep-19 10:30N 47°21' W 002°52'3 5.5
2017-Sep-19 10:00N 47°22' W 002°56'3 5.7
2017-Sep-19 09:30N 47°22' W 003°00'3 5.4
2017-Sep-19 09:00N 47°22' W 003°04'3 5.1
2017-Sep-19 08:30N 47°22' W 003°08'2 4.3
2017-Sep-19 08:00N 47°23' W 003°11'1 2.8
2017-Sep-19 07:29N 47°22' W 003°13'0 0.0
2017-Sep-19 06:59N 47°22' W 003°13'0 0.0
2017-Sep-18 16:59N 47°22' W 003°13'0 0.0
2017-Sep-18 14:59N 47°22' W 003°13'0 0.0
2017-Sep-18 14:26N 47°22' W 003°13'0 1.0
2017-Sep-18 14:00N 47°23' W 003°13'2 5.1
2017-Sep-18 13:30N 47°25' W 003°14'3 5.5
2017-Sep-18 13:00N 47°28' W 003°15'3 5.6
2017-Sep-18 12:30N 47°31' W 003°17'3 5.2
2017-Sep-18 12:00N 47°33' W 003°18'2 4.5
2017-Sep-18 11:30N 47°35' W 003°19'3 5.2
2017-Sep-18 11:00N 47°38' W 003°20'3 5.4
2017-Sep-18 10:30N 47°40' W 003°22'2 5.0
2017-Sep-18 10:00N 47°43' W 003°22'1 2.4
2017-Sep-18 09:30N 47°44' W 003°21'0 0.0
2017-Sep-18 06:41N 47°44' W 003°21'  

Dump ship's entire track history